Time;durP1;ratioP1;P1;durP2;ratioP2;P2;SDS_P1;SDS_P2;PMS_P1;PMS_P2;Temp;Humidity;BMP_temperature;BMP_pressure;BME280_temperature;BME280_humidity;BME280_pressure;Samples;Min_cycle;Max_cycle;Signal;HPM_P1;HPM_P2
2022/02/13 01:15:25;;;;;;;9.77;5.10;;;1.80;99.90;;;;;;5096803;24;19927;-85
2022/02/13 01:17:50;;;;;;;9.18;4.85;;;1.80;99.90;;;;;;4724124;30;20056;-87
2022/02/13 01:20:17;;;;;;;9.90;5.00;;;1.80;99.90;;;;;;4695808;30;20133;-85
2022/02/13 01:22:55;;;;;;;15.77;5.18;;;1.90;99.90;;;;;;4707365;30;20514;-85
2022/02/13 01:36:51;;;;;;;12.38;4.78;;;2.20;99.90;;;;;;4713265;30;20527;-87
2022/02/13 02:05:33;;;;;;;9.85;5.00;;;1.80;99.90;;;;;;4697926;30;20094;-85
2022/02/13 02:16:05;;;;;;;11.38;4.85;;;0.90;99.90;;;;;;4699761;30;20120;-82
2022/02/13 02:37:43;;;;;;;14.88;5.10;;;0.90;99.90;;;;;;4638113;30;20042;-84
2022/02/13 06:55:41;;;;;;;12.25;6.13;;;1.10;99.90;;;;;;4679184;30;20484;-86
2022/02/13 07:01:49;;;;;;;13.57;6.80;;;1.10;99.90;;;;;;4681696;30;20155;-84
2022/02/13 07:04:15;;;;;;;13.05;6.50;;;1.10;99.90;;;;;;4665296;30;20054;-85
2022/02/13 07:06:40;;;;;;;19.02;5.90;;;1.50;99.90;;;;;;4659158;30;20070;-84
2022/02/13 07:09:15;;;;;;;13.40;6.75;;;1.10;99.90;;;;;;4667767;30;20055;-84
2022/02/13 07:11:41;;;;;;;9.32;5.43;;;1.20;99.90;;;;;;4670180;30;20152;-86
2022/02/13 07:14:16;;;;;;;17.17;7.15;;;1.30;99.90;;;;;;4667762;30;20136;-85
2022/02/13 07:16:42;;;;;;;15.18;6.28;;;1.30;99.90;;;;;;4668824;30;20046;-85
2022/02/13 07:19:10;;;;;;;15.68;7.00;;;1.20;99.90;;;;;;4672233;30;20353;-85
2022/02/13 07:21:36;;;;;;;10.70;6.38;;;2.20;99.90;;;;;;4665980;30;20574;-84
2022/02/13 07:24:01;;;;;;;11.63;6.38;;;1.40;99.90;;;;;;4677906;30;20050;-84
2022/02/13 07:26:30;;;;;;;12.13;5.82;;;1.70;99.90;;;;;;4687019;30;20461;-83
2022/02/13 07:28:59;;;;;;;12.32;5.97;;;2.40;99.90;;;;;;4659835;30;20083;-84
2022/02/13 07:31:26;;;;;;;14.20;6.70;;;1.70;99.90;;;;;;4658972;30;20043;-83
2022/02/13 07:33:56;;;;;;;8.60;5.82;;;1.40;99.90;;;;;;4662135;30;20146;-86
2022/02/13 07:36:25;;;;;;;16.25;6.68;;;1.50;99.90;;;;;;4664455;30;20050;-84
2022/02/13 07:38:57;;;;;;;14.93;6.75;;;2.30;99.90;;;;;;4660576;30;20058;-85
2022/02/13 07:41:23;;;;;;;14.45;7.22;;;2.70;99.90;;;;;;4662908;30;20061;-83
2022/02/13 07:44:41;;;;;;;13.20;6.93;;;2.30;99.90;;;;;;4662998;30;20058;-86
2022/02/13 07:47:15;;;;;;;15.30;6.40;;;1.00;99.90;;;;;;4662786;30;20122;-84
2022/02/13 07:49:41;;;;;;;11.30;6.70;;;2.20;99.90;;;;;;4662537;30;20567;-88
2022/02/13 07:52:39;;;;;;;10.57;6.05;;;2.60;99.90;;;;;;4664228;30;20192;-84
2022/02/13 07:55:14;;;;;;;12.27;6.18;;;1.80;99.90;;;;;;4643604;30;20063;-85
2022/02/13 07:57:42;;;;;;;10.95;6.47;;;1.40;99.90;;;;;;4631148;30;20499;-87
2022/02/13 08:00:24;;;;;;;;;;;;;;;;;;;;;
2022/02/13 08:02:59;;;;;;;9.65;6.65;;;2.00;99.90;;;;;;4629455;30;20564;-87
2022/02/13 08:05:25;;;;;;;12.98;6.63;;;3.00;99.90;;;;;;4629393;30;20051;-86
2022/02/13 08:08:25;;;;;;;15.32;6.43;;;2.80;99.90;;;;;;4630214;30;20140;-86
2022/02/13 08:11:03;;;;;;;13.32;6.15;;;2.10;99.90;;;;;;4609467;31;20418;-85
2022/02/13 08:13:49;;;;;;;13.05;6.40;;;2.60;99.90;;;;;;4624768;30;20134;-85
2022/02/13 08:16:15;;;;;;;12.98;6.90;;;3.10;99.90;;;;;;4612038;31;20126;-88
2022/02/13 08:18:50;;;;;;;10.77;6.35;;;3.00;99.90;;;;;;4597877;31;20123;-85
2022/02/13 08:28:18;;;;;;;12.55;6.47;;;2.10;99.90;;;;;;4575579;31;20053;-82
2022/02/13 08:31:38;;;;;;;;;;;;;;;;;;;;;
2022/02/13 08:39:00;;;;;;;11.85;6.22;;;2.50;99.90;;;;;;4573782;31;20522;-83
2022/02/13 08:41:28;;;;;;;11.40;6.55;;;2.50;99.90;;;;;;4524977;31;20057;-81
2022/02/13 08:59:42;;;;;;;9.80;5.65;;;3.00;99.90;;;;;;4555245;31;20064;-85
2022/02/13 09:02:46;;;;;;;10.85;6.05;;;2.60;99.90;;;;;;4586435;31;20072;-86
2022/02/13 09:05:49;;;;;;;;;;;3.10;99.90;;;;;;4538391;31;20785;-79
2022/02/13 09:08:47;;;;;;;11.02;5.80;;;2.70;99.90;;;;;;4527397;31;19926;-80
2022/02/13 09:11:16;;;;;;;9.93;5.63;;;3.80;99.90;;;;;;4541372;31;20063;-85
2022/02/13 09:13:42;;;;;;;12.38;6.25;;;3.70;99.90;;;;;;4525975;31;20531;-84
2022/02/13 09:17:01;;;;;;;9.55;6.35;;;3.40;99.90;;;;;;4550875;31;20069;-82
2022/02/13 09:19:28;;;;;;;12.15;6.65;;;3.50;99.90;;;;;;4558211;31;20061;-83
2022/02/13 09:25:54;;;;;;;12.80;6.22;;;3.30;99.90;;;;;;4558583;31;20073;-81
2022/02/13 09:28:20;;;;;;;11.38;5.95;;;3.70;99.90;;;;;;4557707;31;20241;-78
2022/02/13 09:31:16;;;;;;;17.65;7.15;;;3.90;99.90;;;;;;4560764;31;20120;-81
2022/02/13 09:33:57;;;;;;;14.75;6.28;;;3.90;99.90;;;;;;4550960;31;20622;-84
2022/02/13 09:36:51;;;;;;;10.38;6.20;;;4.00;99.90;;;;;;4562474;31;20111;-82
2022/02/13 09:39:17;;;;;;;12.68;5.75;;;4.20;99.90;;;;;;4581519;31;20403;-81
2022/02/13 09:41:44;;;;;;;11.60;6.10;;;4.80;99.90;;;;;;4580467;30;20062;-81
2022/02/13 09:44:10;;;;;;;11.13;6.28;;;4.10;99.90;;;;;;4641192;30;20058;-82
2022/02/13 09:46:36;;;;;;;13.00;6.45;;;4.10;99.90;;;;;;4642281;30;20039;-76
2022/02/13 09:49:03;;;;;;;13.02;6.78;;;4.10;99.90;;;;;;4657586;30;20122;-80
2022/02/13 09:51:33;;;;;;;11.50;6.43;;;4.20;99.90;;;;;;4643321;30;20058;-77
2022/02/13 09:53:59;;;;;;;9.65;5.57;;;4.20;99.90;;;;;;4666885;30;20063;-79
2022/02/13 09:56:25;;;;;;;15.48;6.47;;;4.20;99.90;;;;;;4643998;30;20130;-78
2022/02/13 09:58:51;;;;;;;11.70;6.28;;;4.30;99.90;;;;;;4670745;30;20191;-79
2022/02/13 10:01:17;;;;;;;10.55;6.22;;;4.40;99.90;;;;;;4655642;30;20516;-77
2022/02/13 10:03:49;;;;;;;12.90;6.60;;;4.30;99.90;;;;;;4660325;30;20492;-78
2022/02/13 10:06:15;;;;;;;11.95;6.15;;;4.40;99.90;;;;;;4658397;30;20050;-77
2022/02/13 10:08:45;;;;;;;11.52;5.40;;;4.40;99.90;;;;;;4660977;30;20085;-79
2022/02/13 10:11:29;;;;;;;9.70;5.57;;;4.50;99.90;;;;;;4661207;30;20551;-78
2022/02/13 10:14:23;;;;;;;16.80;6.43;;;4.40;99.90;;;;;;4661296;30;20090;-77
2022/02/13 10:16:49;;;;;;;12.53;5.90;;;4.40;99.90;;;;;;4660990;30;20066;-79
2022/02/13 10:19:22;;;;;;;9.25;5.47;;;4.70;99.90;;;;;;4678887;30;20381;-77
2022/02/13 10:21:52;;;;;;;11.30;5.97;;;4.50;99.90;;;;;;4663501;30;20086;-79
2022/02/13 10:24:30;;;;;;;13.88;6.18;;;4.60;99.90;;;;;;4662167;30;20222;-79
2022/02/13 10:26:56;;;;;;;14.18;6.18;;;4.50;99.90;;;;;;4664985;30;20081;-81
2022/02/13 10:29:29;;;;;;;11.63;6.65;;;5.20;99.90;;;;;;4659811;30;20073;-79
2022/02/13 10:32:12;;;;;;;9.95;5.82;;;4.60;99.90;;;;;;4664260;30;20054;-80
2022/02/13 10:34:39;;;;;;;14.23;6.07;;;4.70;99.90;;;;;;4665260;30;20077;-80
2022/02/13 10:37:04;;;;;;;10.40;5.72;;;5.40;99.90;;;;;;4666971;30;20482;-78
2022/02/13 10:39:30;;;;;;;11.98;5.70;;;4.80;99.90;;;;;;4663610;30;20129;-79
2022/02/13 10:41:56;;;;;;;11.32;6.20;;;4.80;99.90;;;;;;4665881;30;20050;-77
2022/02/13 10:44:27;;;;;;;9.82;5.57;;;4.90;99.90;;;;;;4663710;30;20500;-77
2022/02/13 10:46:53;;;;;;;13.00;5.95;;;5.00;99.90;;;;;;4663438;30;20133;-80
2022/02/13 10:49:19;;;;;;;12.70;5.78;;;5.00;99.90;;;;;;4662667;30;20054;-77
2022/02/13 10:51:46;;;;;;;9.73;5.57;;;5.10;99.90;;;;;;4666336;30;20129;-79
2022/02/13 10:54:12;;;;;;;10.82;6.20;;;5.10;99.90;;;;;;4660318;30;20097;-82
2022/02/13 10:56:39;;;;;;;12.43;6.10;;;5.10;99.90;;;;;;4660479;30;20046;-83
2022/02/13 10:59:09;;;;;;;9.57;5.53;;;5.20;99.90;;;;;;4675386;30;20452;-79
2022/02/13 11:01:35;;;;;;;10.25;5.45;;;5.30;99.90;;;;;;4655495;30;20077;-79
2022/02/13 11:04:04;;;;;;;10.65;6.15;;;5.40;99.90;;;;;;4672298;30;20062;-79
2022/02/13 11:06:39;;;;;;;14.55;5.70;;;5.50;99.90;;;;;;4662163;30;20062;-77
2022/02/13 11:09:23;;;;;;;10.57;5.40;;;5.50;99.90;;;;;;4684324;30;20043;-78
2022/02/13 11:11:51;;;;;;;10.05;4.93;;;5.60;99.90;;;;;;4657107;30;20074;-76
2022/02/13 11:14:40;;;;;;;13.75;5.97;;;5.60;99.90;;;;;;4655795;30;20125;-77
2022/02/13 11:17:07;;;;;;;8.70;5.43;;;5.80;99.90;;;;;;4644463;30;20080;-76
2022/02/13 11:19:40;;;;;;;11.82;5.95;;;5.80;99.90;;;;;;4655529;30;20081;-78
2022/02/13 11:22:06;;;;;;;8.60;5.43;;;5.90;99.90;;;;;;4668480;30;20066;-80
2022/02/13 11:24:54;;;;;;;8.88;5.60;;;5.90;99.90;;;;;;4684252;30;20443;-77
2022/02/13 11:27:59;;;;;;;10.45;5.75;;;6.00;99.90;;;;;;4673421;30;20054;-82
2022/02/13 11:30:42;;;;;;;8.60;5.47;;;6.00;99.90;;;;;;4659100;30;20496;-83
2022/02/13 11:33:09;;;;;;;12.40;5.22;;;6.10;99.90;;;;;;4659299;30;20056;-88
2022/02/13 11:35:57;;;;;;;8.38;5.32;;;6.20;99.90;;;;;;4660799;30;20054;-84
2022/02/13 11:38:38;;;;;;;8.15;5.30;;;6.40;99.90;;;;;;4659528;30;20050;-81
2022/02/13 11:41:08;;;;;;;11.70;5.70;;;7.10;99.90;;;;;;4657135;30;20126;-83
2022/02/13 11:43:48;;;;;;;10.30;5.75;;;6.70;99.90;;;;;;4658910;30;20062;-79
2022/02/13 11:46:26;;;;;;;8.57;5.43;;;6.80;99.90;;;;;;4658498;30;20416;-78
2022/02/13 11:49:21;;;;;;;8.23;5.05;;;7.40;99.90;;;;;;4659537;30;20557;-78
2022/02/13 11:52:45;;;;;;;9.43;5.13;;;6.80;99.90;;;;;;4659959;30;20050;-81
2022/02/13 11:58:42;;;;;;;11.48;5.30;;;7.00;99.90;;;;;;4640697;30;20631;-81
2022/02/13 12:06:00;;;;;;;8.10;5.57;;;7.20;99.90;;;;;;4638893;30;20455;-81
2022/02/13 12:08:26;;;;;;;11.02;6.63;;;7.20;99.90;;;;;;4638710;30;20062;-79
2022/02/13 12:11:02;;;;;;;10.95;5.60;;;8.10;99.90;;;;;;4615045;30;20079;-81
2022/02/13 12:13:36;;;;;;;8.55;5.65;;;7.40;99.90;;;;;;4612245;30;20181;-80
2022/02/13 12:19:47;;;;;;;8.10;5.75;;;8.20;99.90;;;;;;4570837;30;20052;-80
2022/02/13 12:23:32;;;;;;;;;;;;;;;;;;;;;
2022/02/13 12:33:44;;;;;;;8.55;4.80;;;7.90;99.90;;;;;;4504277;31;20221;-80
2022/02/13 12:36:24;;;;;;;10.18;5.50;;;8.30;99.90;;;;;;4520248;31;20128;-80
2022/02/13 12:39:00;;;;;;;12.75;5.25;;;7.90;99.90;;;;;;4515864;31;20325;-80
2022/02/13 12:41:35;;;;;;;7.97;5.35;;;8.10;99.90;;;;;;4506709;31;20473;-80
2022/02/13 12:44:11;;;;;;;7.50;5.22;;;8.10;99.90;;;;;;4508353;31;20133;-79
2022/02/13 12:46:47;;;;;;;7.65;5.10;;;8.10;99.90;;;;;;4506835;31;20062;-81
2022/02/13 12:49:31;;;;;;;6.65;4.88;;;8.00;99.90;;;;;;4511238;31;20081;-83
2022/02/13 12:51:58;;;;;;;8.80;4.45;;;8.10;99.90;;;;;;4483257;31;20513;-80
2022/02/13 12:55:02;;;;;;;;;;;;;;;;;;;;;
2022/02/13 12:58:15;;;;;;;6.85;5.10;;;8.10;99.90;;;;;;4526596;31;20547;-83
2022/02/13 13:12:52;;;;;;;6.32;4.38;;;8.10;99.90;;;;;;4568412;31;20094;-83
2022/02/13 13:23:21;;;;;;;5.88;4.45;;;8.20;99.90;;;;;;4590991;31;20492;-83
2022/02/13 13:36:56;;;;;;;6.82;3.83;;;8.50;99.90;;;;;;4559512;31;20048;-80
2022/02/13 13:39:37;;;;;;;5.63;3.83;;;8.50;99.90;;;;;;4572029;31;20089;-80
2022/02/13 13:42:23;;;;;;;6.18;4.30;;;8.50;99.90;;;;;;4571090;31;20064;-80
2022/02/13 13:49:00;;;;;;;5.95;3.92;;;8.40;99.90;;;;;;4546803;31;20527;-84
2022/02/13 13:55:19;;;;;;;9.80;4.18;;;8.40;99.90;;;;;;4561785;31;20495;-82
2022/02/13 13:58:00;;;;;;;6.03;3.97;;;8.50;99.90;;;;;;4551792;31;20049;-80
2022/02/13 14:01:49;;;;;;;5.35;3.90;;;8.40;99.90;;;;;;4544592;31;20550;-81
2022/02/13 14:05:00;;;;;;;5.72;3.95;;;8.20;99.90;;;;;;4534655;31;20167;-83
2022/02/13 14:08:14;;;;;;;6.68;3.85;;;8.30;99.90;;;;;;4598606;31;20160;-83
2022/02/13 14:10:44;;;;;;;7.07;4.05;;;8.20;99.90;;;;;;4609132;31;20059;-82
2022/02/13 14:13:13;;;;;;;5.20;3.70;;;8.80;99.90;;;;;;4626003;30;20066;-81
2022/02/13 14:15:41;;;;;;;6.20;3.92;;;8.10;99.90;;;;;;4614498;31;20055;-81
2022/02/13 14:18:10;;;;;;;6.25;4.03;;;8.40;99.90;;;;;;4614498;31;20070;-83
2022/02/13 14:20:38;;;;;;;5.85;3.97;;;8.00;99.90;;;;;;4581149;31;20135;-82
2022/02/13 14:23:04;;;;;;;6.43;4.18;;;8.30;99.90;;;;;;4576279;31;20127;-82
2022/02/13 14:25:30;;;;;;;7.95;3.90;;;8.50;99.90;;;;;;4565008;31;20056;-81
2022/02/13 14:27:56;;;;;;;7.80;4.20;;;8.20;99.90;;;;;;4586017;31;20207;-81
2022/02/13 14:30:22;;;;;;;6.60;4.00;;;8.10;99.90;;;;;;4598598;31;20147;-80
2022/02/13 14:32:48;;;;;;;5.50;3.80;;;8.10;99.90;;;;;;4630766;30;20650;-81
2022/02/13 14:35:54;;;;;;;5.82;4.38;;;8.10;99.90;;;;;;4656541;30;20134;-81
2022/02/13 14:38:30;;;;;;;4.72;4.10;;;8.00;99.90;;;;;;4639141;30;20424;-81
2022/02/13 14:40:56;;;;;;;8.50;4.57;;;7.90;99.90;;;;;;4627765;30;20436;-83
2022/02/13 14:47:27;;;;;;;;;;;7.70;99.90;;;;;;4632399;30;20070;-84
2022/02/13 14:50:26;;;;;;;7.15;4.40;;;7.50;99.90;;;;;;4628487;30;19924;-87
2022/02/13 14:57:14;;;;;;;7.75;4.85;;;7.50;99.90;;;;;;4631865;30;20146;-85
2022/02/13 15:05:27;;;;;;;;;;;;;;;;;;;;;
2022/02/13 15:11:48;;;;;;;6.75;4.82;;;7.90;99.90;;;;;;4630985;30;20086;-84
2022/02/13 15:14:52;;;;;;;;;;;;;;;;;;;;;
2022/02/13 15:25:32;;;;;;;8.43;5.70;;;7.70;99.90;;;;;;4585970;31;20108;-85
2022/02/13 15:29:08;;;;;;;6.53;4.93;;;7.30;99.90;;;;;;4575565;31;20165;-86
2022/02/13 15:38:34;;;;;;;8.38;6.00;;;7.20;99.90;;;;;;4577456;31;20518;-85
2022/02/13 15:41:03;;;;;;;8.82;6.07;;;7.90;99.90;;;;;;4563959;31;20072;-83
2022/02/13 15:43:48;;;;;;;9.15;6.00;;;7.70;99.90;;;;;;4557191;31;20155;-82
2022/02/13 15:47:01;;;;;;;8.95;6.13;;;7.40;99.90;;;;;;4560530;31;20056;-82
2022/02/13 15:49:35;;;;;;;10.10;6.65;;;7.40;99.90;;;;;;4567972;31;20057;-82
2022/02/13 15:56:36;;;;;;;7.38;5.90;;;7.20;99.90;;;;;;4629208;30;20227;-83
2022/02/13 16:03:05;;;;;;;9.82;6.07;;;7.00;99.90;;;;;;4565591;31;20091;-83
2022/02/13 16:08:44;;;;;;;10.27;6.90;;;6.80;99.90;;;;;;4691281;25;20053;-84
2022/02/13 16:11:13;;;;;;;11.52;6.35;;;7.30;99.90;;;;;;4693837;30;20058;-84
2022/02/13 16:13:41;;;;;;;12.20;7.30;;;6.90;99.90;;;;;;4714375;30;20057;-84
2022/02/13 16:16:20;;;;;;;10.65;7.22;;;6.80;99.90;;;;;;4713466;30;20088;-84
2022/02/13 16:22:32;;;;;;;9.90;6.13;;;6.20;99.90;;;;;;4676782;30;20194;-87
2022/02/13 16:25:03;;;;;;;12.70;6.63;;;6.40;99.90;;;;;;4675603;30;20058;-87
2022/02/13 16:27:48;;;;;;;;;;;;;;;;;;;;;
2022/02/13 16:38:53;;;;;;;;;;;;;;;;;;;;;
2022/02/13 16:42:08;;;;;;;;;;;;;;;;;;;;;
2022/02/13 16:49:06;;;;;;;8.97;5.53;;;6.00;99.90;;;;;;4596037;30;20135;-89
2022/02/13 16:51:55;;;;;;;9.10;6.20;;;6.40;99.90;;;;;;4595814;31;20603;-87
2022/02/13 16:55:02;;;;;;;12.95;5.88;;;6.60;99.90;;;;;;4585611;31;20067;-89
2022/02/13 16:57:49;;;;;;;8.48;5.88;;;6.80;99.90;;;;;;4596044;31;20059;-85
2022/02/13 17:00:30;;;;;;;12.05;6.10;;;6.60;99.90;;;;;;4607871;31;20056;-88
2022/02/13 17:03:07;;;;;;;10.82;5.80;;;6.50;99.90;;;;;;4641711;30;20417;-87
2022/02/13 17:05:54;;;;;;;11.57;6.13;;;6.50;99.90;;;;;;4617343;30;20105;-89
2022/02/13 17:08:28;;;;;;;9.75;5.80;;;6.80;99.90;;;;;;4629677;30;20058;-89
2022/02/13 17:11:31;;;;;;;8.93;5.80;;;6.50;99.90;;;;;;4636093;30;20054;-90
2022/02/13 17:14:46;;;;;;;;;;;6.60;99.90;;;;;;4610761;31;20417;-84
2022/02/13 17:17:50;;;;;;;;;;;;;;;;;;;;;
2022/02/13 17:20:34;;;;;;;9.00;5.60;;;6.80;99.90;;;;;;4608224;31;20074;-85
2022/02/13 17:34:46;;;;;;;9.40;5.65;;;5.90;99.90;;;;;;4642123;30;20077;-80
2022/02/13 17:37:56;;;;;;;9.90;5.20;;;6.70;99.90;;;;;;4612740;30;20103;-80
2022/02/13 17:40:24;;;;;;;10.35;5.20;;;6.00;99.90;;;;;;4647481;30;20054;-81
2022/02/13 17:42:50;;;;;;;11.38;5.85;;;6.60;99.90;;;;;;4639141;30;20744;-80
2022/02/13 17:45:16;;;;;;;11.60;6.00;;;6.70;99.90;;;;;;4602314;31;20075;-84
2022/02/13 17:56:09;;;;;;;13.40;5.07;;;6.20;99.90;;;;;;4571164;31;20495;-86
2022/02/13 18:15:58;;;;;;;14.57;5.03;;;7.10;99.90;;;;;;494856;28;20364;-81
2022/02/13 18:22:27;;;;;;;10.93;5.25;;;7.00;99.90;;;;;;4622744;31;20829;-80
2022/02/13 18:24:53;;;;;;;11.65;5.45;;;7.10;99.90;;;;;;4624205;30;20059;-78
2022/02/13 18:27:18;;;;;;;11.75;5.43;;;7.60;99.90;;;;;;4609945;31;20059;-77
2022/02/13 18:29:45;;;;;;;9.50;5.68;;;7.10;99.90;;;;;;4612456;31;20051;-82
2022/02/13 18:32:12;;;;;;;12.40;5.57;;;7.20;99.90;;;;;;4612845;31;20168;-82
2022/02/13 18:34:40;;;;;;;18.23;5.32;;;7.20;99.90;;;;;;4592886;31;20138;-79
2022/02/13 18:37:07;;;;;;;11.88;4.85;;;7.20;99.90;;;;;;4609484;31;20055;-81
2022/02/13 18:39:38;;;;;;;11.20;5.03;;;7.20;99.90;;;;;;4609906;30;20564;-83
2022/02/13 18:42:05;;;;;;;10.55;5.45;;;7.20;99.90;;;;;;4599960;31;20099;-80
2022/02/13 18:44:33;;;;;;;11.30;5.20;;;7.20;99.90;;;;;;4613910;30;20367;-80
2022/02/13 18:47:19;;;;;;;10.07;4.90;;;7.20;99.90;;;;;;4612414;31;20051;-81
2022/02/13 18:49:44;;;;;;;11.48;5.30;;;7.30;99.90;;;;;;4596203;31;20086;-79
2022/02/13 18:52:10;;;;;;;10.40;5.28;;;7.30;99.90;;;;;;4610946;31;20103;-80
2022/02/13 18:54:52;;;;;;;11.27;5.47;;;7.60;99.90;;;;;;4622533;30;20070;-81
2022/02/13 18:57:18;;;;;;;14.57;5.95;;;7.30;99.90;;;;;;4677643;30;20057;-80
2022/02/13 18:59:46;;;;;;;11.35;5.57;;;7.30;99.90;;;;;;4675368;30;20080;-82
2022/02/13 19:02:12;;;;;;;8.60;4.68;;;7.30;99.90;;;;;;4671997;30;20080;-81
2022/02/13 19:04:48;;;;;;;12.07;5.50;;;7.30;99.90;;;;;;4660760;30;20066;-82
2022/02/13 19:07:23;;;;;;;14.63;5.35;;;7.90;99.90;;;;;;4704381;24;20061;-80
2022/02/13 19:09:54;;;;;;;11.50;6.15;;;7.30;99.90;;;;;;4734653;30;20068;-80
2022/02/13 19:12:27;;;;;;;13.47;6.03;;;7.90;99.90;;;;;;4712492;30;20374;-82
2022/02/13 19:14:59;;;;;;;11.27;5.57;;;7.30;99.90;;;;;;4720163;30;20045;-83
2022/02/13 19:17:25;;;;;;;10.35;5.85;;;7.20;99.90;;;;;;4694380;30;20040;-82
2022/02/13 19:19:51;;;;;;;15.25;6.57;;;7.30;99.90;;;;;;4706256;30;20115;-82
2022/02/13 19:22:16;;;;;;;11.65;5.65;;;7.30;99.90;;;;;;4720590;30;20115;-80
2022/02/13 19:24:42;;;;;;;13.93;6.13;;;7.40;99.90;;;;;;4732860;30;20053;-80
2022/02/13 19:29:52;;;;;;;8.65;5.05;;;7.40;99.90;;;;;;4698547;30;20113;-82
2022/02/13 19:32:17;;;;;;;10.70;5.18;;;7.60;99.90;;;;;;4709718;30;20065;-80
2022/02/13 19:34:45;;;;;;;16.38;5.80;;;7.70;99.90;;;;;;4710021;30;20159;-82
2022/02/13 19:37:12;;;;;;;13.77;6.15;;;7.60;99.90;;;;;;4698124;30;20056;-82
2022/02/13 19:39:38;;;;;;;11.60;5.60;;;7.50;99.90;;;;;;4705769;30;20053;-81
2022/02/13 19:42:07;;;;;;;21.58;7.40;;;7.50;99.90;;;;;;4711478;30;20132;-82
2022/02/13 19:44:35;;;;;;;15.23;7.15;;;7.60;99.90;;;;;;4707735;30;20076;-81
2022/02/13 19:47:02;;;;;;;13.55;5.85;;;7.60;99.90;;;;;;4714643;30;20048;-81
2022/02/13 19:49:28;;;;;;;15.13;5.85;;;7.70;99.90;;;;;;4725514;30;20111;-87
2022/02/13 19:51:54;;;;;;;15.80;5.90;;;7.60;99.90;;;;;;4709707;30;20072;-81
2022/02/13 19:54:20;;;;;;;16.80;6.95;;;7.60;99.90;;;;;;4696027;30;20515;-80
2022/02/13 19:56:47;;;;;;;16.55;7.20;;;7.60;99.90;;;;;;4699227;30;20131;-82
2022/02/13 19:59:13;;;;;;;11.10;5.50;;;7.60;99.90;;;;;;4711684;30;21718;-84
2022/02/13 20:01:46;;;;;;;12.55;5.97;;;7.70;99.90;;;;;;4708921;30;20068;-82
2022/02/13 20:04:12;;;;;;;10.32;5.60;;;7.70;99.90;;;;;;4686414;30;20432;-87
2022/02/13 20:06:38;;;;;;;10.98;5.70;;;8.20;99.90;;;;;;4719920;30;20087;-81
2022/02/13 20:09:05;;;;;;;21.88;6.32;;;7.70;99.90;;;;;;4712000;30;20057;-85
2022/02/13 20:11:32;;;;;;;15.05;6.38;;;7.70;99.90;;;;;;4713707;30;20118;-79
2022/02/13 20:13:57;;;;;;;15.23;5.65;;;7.80;99.90;;;;;;4697942;30;20059;-82
2022/02/13 20:16:30;;;;;;;12.10;5.47;;;7.80;99.90;;;;;;4714006;30;20036;-83
2022/02/13 20:18:56;;;;;;;13.80;5.95;;;7.90;99.90;;;;;;4715265;30;20660;-82
2022/02/13 20:21:22;;;;;;;17.30;5.93;;;8.00;99.90;;;;;;4715923;30;20045;-77
2022/02/13 20:23:48;;;;;;;14.70;5.80;;;8.00;99.90;;;;;;4728273;30;20075;-82
2022/02/13 20:26:14;;;;;;;17.40;6.32;;;7.90;99.90;;;;;;4729622;30;20140;-80
2022/02/13 20:28:40;;;;;;;10.57;5.45;;;8.00;99.90;;;;;;4701152;30;20421;-81
2022/02/13 20:31:05;;;;;;;10.90;5.32;;;8.10;99.90;;;;;;4715116;30;20044;-85
2022/02/13 20:33:31;;;;;;;11.60;5.80;;;8.10;99.90;;;;;;4729224;30;20489;-83
2022/02/13 20:35:57;;;;;;;12.48;5.38;;;8.20;99.90;;;;;;4715471;30;20075;-81
2022/02/13 20:38:22;;;;;;;12.57;5.45;;;8.10;99.90;;;;;;4718236;30;20045;-83
2022/02/13 20:40:55;;;;;;;16.38;6.35;;;8.10;99.90;;;;;;4733398;30;20537;-83
2022/02/13 21:05:47;;;;;;;13.30;6.28;;;7.70;99.90;;;;;;4705387;30;20461;-78
2022/02/13 21:16:44;;;;;;;11.75;6.13;;;8.10;99.90;;;;;;4677985;30;20046;-83
2022/02/13 21:19:16;;;;;;;13.63;5.93;;;8.30;99.90;;;;;;4691293;30;20049;-82
2022/02/13 21:22:06;;;;;;;12.82;6.03;;;8.50;99.90;;;;;;4693227;30;20173;-82
2022/02/13 21:42:40;;;;;;;13.07;6.22;;;8.50;99.90;;;;;;4589536;31;20220;-82
2022/02/13 21:45:43;;;;;;;11.63;5.95;;;8.90;99.90;;;;;;4574953;31;20064;-84
2022/02/13 21:48:14;;;;;;;16.23;5.70;;;7.90;99.90;;;;;;4574643;31;20462;-85
2022/02/13 22:22:47;;;;;;;10.73;5.57;;;8.50;99.90;;;;;;6219455;23;20380;-83
2022/02/13 22:25:16;;;;;;;13.07;5.07;;;8.90;99.90;;;;;;6192372;23;20682;-83
2022/02/13 22:27:42;;;;;;;10.70;5.55;;;9.50;99.90;;;;;;6192026;23;20031;-84
2022/02/13 22:30:09;;;;;;;11.68;5.15;;;9.00;99.90;;;;;;6190395;23;20122;-84
2022/02/13 22:32:35;;;;;;;10.60;4.95;;;9.00;99.90;;;;;;6218660;23;20013;-83
2022/02/13 22:35:01;;;;;;;14.00;5.38;;;9.00;99.90;;;;;;6167847;23;20008;-84
2022/02/13 22:37:26;;;;;;;11.50;4.95;;;9.00;99.90;;;;;;6220265;23;20012;-83
2022/02/13 22:39:52;;;;;;;12.15;5.78;;;9.00;99.90;;;;;;6190695;23;20012;-83
2022/02/13 22:42:18;;;;;;;9.50;5.40;;;9.00;99.90;;;;;;6193892;23;20012;-83
2022/02/13 22:44:44;;;;;;;9.98;5.15;;;9.10;99.90;;;;;;6192813;23;20016;-83
2022/02/13 22:47:10;;;;;;;13.32;5.18;;;9.00;99.90;;;;;;6193875;23;20019;-83
2022/02/13 22:49:39;;;;;;;14.25;4.88;;;9.00;99.90;;;;;;6164798;23;20040;-84
2022/02/13 22:52:05;;;;;;;12.65;5.00;;;9.00;99.90;;;;;;6165731;23;20009;-83
2022/02/13 22:54:30;;;;;;;9.80;5.13;;;9.00;99.90;;;;;;6193132;23;20019;-85
2022/02/13 22:56:56;;;;;;;10.63;4.82;;;9.00;99.90;;;;;;6169673;23;20012;-82
2022/02/13 22:59:23;;;;;;;9.38;4.35;;;9.10;99.90;;;;;;6193685;23;20019;-82
2022/02/13 23:01:49;;;;;;;8.25;4.43;;;9.00;99.90;;;;;;6193478;23;20134;-82
2022/02/13 23:12:34;;;;;;;9.35;5.10;;;9.10;99.90;;;;;;6191743;23;20389;-83
2022/02/13 23:12:35;;;;;;;12.02;5.03;;;9.90;99.90;;;;;;6215359;23;20013;-82
2022/02/13 23:15:00;;;;;;;10.60;4.68;;;9.10;99.90;;;;;;6213846;23;20360;-85
2022/02/13 23:17:26;;;;;;;13.07;4.88;;;9.40;99.90;;;;;;6217003;23;20016;-83
2022/02/13 23:19:53;;;;;;;8.88;4.40;;;9.10;99.90;;;;;;6190107;23;20019;-83
2022/02/13 23:22:19;;;;;;;10.68;4.45;;;9.20;99.90;;;;;;6216057;23;20047;-83
2022/02/13 23:24:48;;;;;;;14.25;4.60;;;9.10;99.90;;;;;;6214460;23;20019;-83
2022/02/13 23:27:13;;;;;;;8.95;4.75;;;9.10;99.90;;;;;;6217205;23;20306;-83
2022/02/13 23:29:40;;;;;;;8.98;4.00;;;9.10;99.90;;;;;;6215266;23;20097;-82
2022/02/13 23:32:06;;;;;;;14.38;4.13;;;9.10;99.90;;;;;;6191953;23;20012;-84
2022/02/13 23:34:31;;;;;;;9.85;4.57;;;9.10;99.90;;;;;;6215683;23;20016;-83
2022/02/13 23:36:57;;;;;;;10.73;4.25;;;9.60;99.90;;;;;;6191192;23;20016;-84
2022/02/13 23:39:23;;;;;;;8.40;4.07;;;9.10;99.90;;;;;;6190654;23;20016;-84
2022/02/13 23:41:48;;;;;;;9.85;4.40;;;9.10;99.90;;;;;;6190319;23;20004;-83
2022/02/13 23:44:14;;;;;;;10.73;4.55;;;9.10;99.90;;;;;;6191112;23;20020;-84
2022/02/13 23:46:40;;;;;;;13.23;4.65;;;9.90;99.90;;;;;;6216259;23;20119;-84
2022/02/13 23:49:06;;;;;;;7.03;4.20;;;9.00;99.90;;;;;;6216029;23;20073;-83
2022/02/13 23:51:31;;;;;;;9.13;4.10;;;9.10;99.90;;;;;;6215712;23;20023;-84
2022/02/13 23:53:57;;;;;;;14.38;4.30;;;9.00;99.90;;;;;;6216030;23;20312;-84
2022/02/13 23:56:23;;;;;;;13.05;4.50;;;9.00;99.90;;;;;;6191008;23;20049;-82
2022/02/13 23:58:48;;;;;;;11.27;4.38;;;9.00;99.90;;;;;;6216567;23;20016;-83
